createdAt,value
2023-01-01T00:01:48.693Z,5.85
2023-01-01T00:04:16.540Z,4.60
2023-01-01T00:06:44.636Z,4.43
2023-01-01T00:09:30.866Z,4.88
2023-01-01T00:11:58.342Z,4.15
2023-01-01T00:14:25.888Z,5.95
2023-01-01T00:16:55.183Z,4.45
2023-01-01T00:19:25.714Z,5.25
2023-01-01T00:21:53.214Z,5.10
2023-01-01T00:24:20.697Z,7.15
2023-01-01T00:26:48.219Z,5.40
2023-01-01T00:29:16.023Z,6.18
2023-01-01T00:31:43.599Z,4.80
2023-01-01T00:34:11.542Z,4.97
2023-01-01T00:36:39.006Z,5.25
2023-01-01T00:39:06.593Z,4.25
2023-01-01T00:41:34.363Z,4.70
2023-01-01T00:44:01.879Z,4.47
2023-01-01T00:46:29.398Z,4.53
2023-01-01T00:48:56.936Z,5.72
2023-01-01T00:51:24.364Z,5.10
2023-01-01T00:53:52.209Z,5.65
2023-01-01T00:56:19.661Z,4.32
2023-01-01T00:59:01.087Z,4.22
2023-01-01T01:01:29.752Z,5.68
2023-01-01T01:03:57.286Z,4.28
2023-01-01T01:06:25.084Z,6.20
2023-01-01T01:08:52.691Z,2.85
2023-01-01T01:11:21.306Z,5.25
2023-01-01T01:13:49.865Z,4.50
2023-01-01T01:16:19.255Z,5.30
2023-01-01T01:18:46.891Z,4.50
2023-01-01T01:21:18.557Z,5.07
2023-01-01T01:23:46.087Z,5.65
2023-01-01T01:26:14.950Z,5.28
2023-01-01T01:28:49.050Z,4.13
2023-01-01T01:31:18.385Z,7.07
2023-01-01T01:33:46.699Z,5.57
2023-01-01T01:36:14.941Z,5.40
2023-01-01T01:38:42.801Z,5.13
2023-01-01T01:41:20.522Z,5.22
2023-01-01T01:43:59.287Z,5.90
2023-01-01T01:46:29.825Z,4.38
2023-01-01T01:48:59.889Z,5.47
2023-01-01T01:51:30.237Z,5.50
2023-01-01T01:54:00.303Z,5.07
2023-01-01T01:56:37.594Z,5.90
2023-01-01T01:59:05.137Z,5.53
2023-01-01T02:01:32.671Z,5.13
2023-01-01T02:04:01.096Z,4.57
2023-01-01T02:06:29.912Z,4.35
2023-01-01T02:08:58.395Z,3.15
2023-01-01T02:11:26.124Z,4.35
2023-01-01T02:13:54.367Z,4.90
2023-01-01T02:16:24.277Z,4.85
2023-01-01T02:18:57.900Z,3.97
2023-01-01T02:21:36.550Z,4.93
2023-01-01T02:24:07.305Z,4.63
2023-01-01T02:26:45.269Z,5.88
2023-01-01T02:29:12.745Z,3.80
2023-01-01T02:31:51.798Z,4.97
2023-01-01T02:34:21.785Z,3.92
2023-01-01T02:36:51.112Z,4.75
2023-01-01T02:39:20.141Z,5.40
2023-01-01T02:41:49.430Z,4.53
2023-01-01T02:44:17.970Z,3.88
2023-01-01T02:46:45.604Z,3.67
2023-01-01T02:49:13.231Z,5.68
2023-01-01T02:51:59.803Z,3.75
2023-01-01T02:54:46.911Z,4.43
2023-01-01T02:57:29.648Z,3.40
2023-01-01T03:00:15.216Z,4.05
2023-01-01T03:02:51.160Z,4.97
2023-01-01T03:05:34.884Z,3.85
2023-01-01T03:08:08.636Z,3.90
2023-01-01T03:10:36.088Z,4.53
2023-01-01T03:13:08.722Z,4.75
2023-01-01T03:15:39.282Z,5.57
2023-01-01T03:18:10.659Z,4.35
2023-01-01T03:20:41.074Z,4.63
2023-01-01T03:23:10.758Z,4.80
2023-01-01T03:25:42.227Z,5.30
2023-01-01T03:28:18.988Z,4.80
2023-01-01T03:30:47.510Z,4.88
2023-01-01T03:33:19.737Z,6.65
2023-01-01T03:35:53.014Z,4.70
2023-01-01T03:40:49.787Z,6.50
2023-01-01T03:43:31.133Z,4.88
2023-01-01T03:46:00.184Z,5.28
2023-01-01T03:48:27.693Z,5.80
2023-01-01T03:51:15.484Z,5.57
2023-01-01T03:53:44.187Z,7.30
2023-01-01T03:56:17.643Z,6.72
2023-01-01T03:58:50.484Z,5.43
2023-01-01T04:01:24.006Z,7.18
2023-01-01T04:03:51.724Z,5.05
2023-01-01T04:06:19.297Z,7.00
2023-01-01T04:08:48.503Z,5.18
2023-01-01T04:11:40.818Z,5.88
2023-01-01T04:14:08.419Z,6.65
2023-01-01T04:16:40.225Z,6.70
2023-01-01T04:19:07.727Z,7.82
2023-01-01T04:21:35.237Z,8.85
2023-01-01T04:24:02.730Z,8.05
2023-01-01T04:26:30.282Z,8.10
2023-01-01T04:28:57.814Z,7.63
2023-01-01T04:31:25.137Z,10.02
2023-01-01T04:33:55.283Z,8.15
2023-01-01T04:36:23.086Z,10.00
2023-01-01T04:38:50.612Z,9.40
2023-01-01T04:41:18.062Z,6.88
2023-01-01T04:43:51.848Z,7.75
2023-01-01T04:46:20.284Z,9.00
2023-01-01T04:48:48.074Z,8.00
2023-01-01T04:51:16.934Z,7.32
2023-01-01T04:53:44.478Z,8.73
2023-01-01T04:56:13.355Z,5.95
2023-01-01T04:58:41.990Z,8.27
2023-01-01T05:01:15.004Z,7.13
2023-01-01T05:03:42.631Z,6.82
2023-01-01T05:06:11.348Z,6.05
2023-01-01T05:08:39.699Z,7.30
2023-01-01T05:11:11.492Z,7.50
2023-01-01T05:13:39.963Z,9.32
2023-01-01T05:16:08.515Z,5.95
2023-01-01T05:18:36.889Z,6.82
2023-01-01T05:21:05.880Z,6.53
2023-01-01T05:23:33.429Z,6.43
2023-01-01T05:26:00.913Z,7.65
2023-01-01T05:28:28.383Z,7.55
2023-01-01T05:30:55.876Z,6.20
2023-01-01T05:33:23.721Z,6.53
2023-01-01T05:35:55.502Z,6.00
2023-01-01T05:38:23.072Z,5.85
2023-01-01T05:40:50.560Z,5.80
2023-01-01T05:43:18.503Z,6.03
2023-01-01T05:45:47.885Z,5.75
2023-01-01T05:48:15.366Z,5.10
2023-01-01T05:50:42.877Z,4.50
2023-01-01T05:53:10.510Z,4.95
2023-01-01T05:55:38.023Z,4.85
2023-01-01T05:58:05.458Z,6.32
2023-01-01T06:00:32.983Z,6.82
2023-01-01T06:03:00.483Z,8.10
2023-01-01T06:05:27.894Z,6.50
2023-01-01T06:07:55.391Z,6.30
2023-01-01T06:10:24.892Z,5.38
2023-01-01T06:12:52.358Z,6.60
2023-01-01T06:15:19.869Z,9.10
2023-01-01T06:17:47.695Z,5.82
2023-01-01T06:20:15.246Z,6.43
2023-01-01T06:22:42.712Z,7.68
2023-01-01T06:25:10.464Z,7.35
2023-01-01T06:27:37.947Z,5.78
2023-01-01T06:30:06.503Z,7.35
2023-01-01T06:32:34.384Z,5.65
2023-01-01T06:35:01.890Z,6.68
2023-01-01T06:37:29.794Z,5.72
2023-01-01T06:39:57.293Z,6.22
2023-01-01T06:42:29.008Z,6.15
2023-01-01T06:44:59.559Z,6.32
2023-01-01T06:47:27.065Z,5.40
2023-01-01T06:49:54.548Z,7.63
2023-01-01T06:52:22.071Z,5.05
2023-01-01T06:54:49.621Z,5.75
2023-01-01T06:57:17.064Z,6.65
2023-01-01T06:59:44.597Z,7.35
2023-01-01T07:02:12.793Z,6.45
2023-01-01T07:04:40.460Z,7.55
2023-01-01T07:07:07.992Z,6.80
2023-01-01T07:09:35.738Z,8.48
2023-01-01T07:12:03.231Z,6.72
2023-01-01T07:14:30.710Z,6.75
2023-01-01T07:16:58.200Z,6.47
2023-01-01T07:19:25.690Z,6.70
2023-01-01T07:21:55.395Z,6.38
2023-01-01T07:24:22.943Z,5.93
2023-01-01T07:26:50.391Z,7.25
2023-01-01T07:29:18.175Z,6.90
2023-01-01T07:31:46.251Z,5.07
2023-01-01T07:34:15.564Z,6.68
2023-01-01T07:36:43.671Z,6.00
2023-01-01T07:39:13.548Z,9.07
2023-01-01T07:41:41.139Z,7.13
2023-01-01T07:44:08.718Z,6.32
2023-01-01T07:46:37.184Z,4.85
2023-01-01T07:49:05.070Z,5.28
2023-01-01T07:51:32.600Z,5.85
2023-01-01T07:54:06.306Z,5.10
2023-01-01T07:56:35.235Z,4.85
2023-01-01T07:59:02.738Z,5.40
2023-01-01T08:01:30.345Z,5.90
2023-01-01T08:03:57.945Z,4.70
2023-01-01T08:06:25.507Z,7.15
2023-01-01T08:08:53.322Z,4.63
2023-01-01T08:11:20.833Z,6.03
2023-01-01T08:13:48.465Z,5.90
2023-01-01T08:16:15.975Z,5.47
2023-01-01T08:18:43.470Z,6.70
2023-01-01T08:21:10.902Z,4.65
2023-01-01T08:23:38.368Z,6.88
2023-01-01T08:26:05.971Z,4.53
2023-01-01T08:28:33.714Z,5.35
2023-01-01T08:31:01.342Z,5.25
2023-01-01T08:33:28.872Z,5.82
2023-01-01T08:35:56.517Z,4.35
2023-01-01T08:38:24.014Z,5.72
2023-01-01T08:40:51.494Z,5.00
2023-01-01T08:43:19.186Z,5.32
2023-01-01T08:45:46.663Z,4.38
2023-01-01T08:48:14.826Z,4.25
2023-01-01T08:50:42.374Z,5.43
2023-01-01T08:53:09.863Z,6.03
2023-01-01T08:55:38.301Z,4.85
2023-01-01T08:58:08.989Z,5.75
2023-01-01T09:00:36.589Z,4.53
2023-01-01T09:03:04.179Z,5.40
2023-01-01T09:05:31.651Z,5.03
2023-01-01T09:07:59.091Z,6.63
2023-01-01T09:10:26.651Z,4.88
2023-01-01T09:12:54.202Z,7.82
2023-01-01T09:15:21.692Z,6.85
2023-01-01T09:17:49.260Z,8.23
2023-01-01T09:20:16.785Z,11.02
2023-01-01T09:22:44.257Z,9.95
2023-01-01T09:25:11.756Z,7.97
2023-01-01T09:27:39.388Z,9.13
2023-01-01T09:30:07.178Z,9.13
2023-01-01T09:32:34.646Z,10.73
2023-01-01T09:35:02.177Z,11.27
2023-01-01T09:37:29.829Z,8.68
2023-01-01T09:39:58.127Z,10.13
2023-01-01T09:42:33.907Z,10.07
2023-01-01T09:45:06.203Z,11.50
2023-01-01T09:47:54.091Z,9.70
2023-01-01T09:50:23.428Z,9.57
2023-01-01T09:52:53.323Z,9.95
2023-01-01T09:55:27.001Z,10.80
2023-01-01T09:57:55.502Z,9.60
2023-01-01T10:00:23.373Z,8.52
2023-01-01T10:02:54.016Z,11.25
2023-01-01T10:05:27.599Z,11.45
2023-01-01T10:08:16.985Z,9.88
2023-01-01T10:10:57.302Z,9.95
2023-01-01T10:13:53.964Z,11.85
2023-01-01T10:16:24.622Z,10.85
2023-01-01T10:19:07.114Z,10.55
2023-01-01T10:21:40.745Z,10.90
2023-01-01T10:24:30.752Z,9.93
2023-01-01T10:26:58.728Z,10.55
2023-01-01T10:29:32.986Z,8.55
2023-01-01T10:32:07.035Z,12.00
2023-01-01T10:34:35.119Z,9.80
2023-01-01T10:37:03.682Z,8.85
2023-01-01T10:39:31.309Z,11.25
2023-01-01T10:41:59.070Z,10.13
2023-01-01T10:44:34.406Z,9.60
2023-01-01T10:47:12.877Z,12.55
2023-01-01T10:49:58.490Z,8.60
2023-01-01T10:52:32.304Z,7.93
2023-01-01T10:55:00.606Z,11.43
2023-01-01T10:57:29.452Z,8.00
2023-01-01T11:00:09.757Z,8.50
2023-01-01T11:02:37.975Z,10.13
2023-01-01T11:05:22.368Z,9.98
2023-01-01T11:07:50.819Z,10.52
2023-01-01T11:10:22.448Z,11.07
2023-01-01T11:13:06.963Z,8.48
2023-01-01T11:15:34.647Z,10.20
2023-01-01T11:18:28.228Z,8.88
2023-01-01T11:20:57.330Z,9.48
2023-01-01T11:23:38.384Z,9.00
2023-01-01T11:26:14.888Z,10.85
2023-01-01T11:28:42.702Z,7.13
2023-01-01T11:31:21.299Z,10.27
2023-01-01T11:33:53.687Z,8.32
2023-01-01T11:36:25.381Z,9.43
2023-01-01T11:39:05.279Z,8.15
2023-01-01T11:41:42.149Z,10.73
2023-01-01T11:44:11.364Z,9.85
2023-01-01T11:46:38.992Z,9.27
2023-01-01T11:49:13.642Z,9.50
2023-01-01T11:51:41.086Z,8.95
2023-01-01T11:54:10.071Z,8.20
2023-01-01T11:56:37.645Z,9.77
2023-01-01T11:59:13.336Z,9.00
2023-01-01T12:01:43.831Z,8.88
2023-01-01T12:04:17.588Z,9.75
2023-01-01T12:06:50.593Z,7.95
2023-01-01T12:09:36.721Z,9.20
2023-01-01T12:12:08.342Z,7.95
2023-01-01T12:14:50.913Z,9.20
2023-01-01T12:17:21.412Z,9.93
2023-01-01T12:19:54.839Z,11.48
2023-01-01T12:22:22.344Z,10.02
2023-01-01T12:24:50.755Z,10.23
2023-01-01T12:27:18.232Z,10.98
2023-01-01T12:30:04.220Z,9.95
2023-01-01T12:32:50.229Z,9.02
2023-01-01T12:35:36.621Z,9.60
2023-01-01T12:38:22.844Z,11.50
2023-01-01T12:40:57.123Z,8.95
2023-01-01T12:43:43.970Z,11.63
2023-01-01T12:46:11.578Z,7.65
2023-01-01T12:48:57.675Z,11.50
2023-01-01T12:51:25.240Z,9.38
2023-01-01T12:53:58.698Z,9.00
2023-01-01T12:56:53.414Z,9.30
2023-01-01T12:59:27.349Z,10.63
2023-01-01T13:01:57.004Z,8.77
2023-01-01T13:04:25.057Z,10.43
2023-01-01T13:06:58.042Z,9.95
2023-01-01T13:09:27.152Z,10.10
2023-01-01T13:11:59.729Z,8.35
2023-01-01T13:14:27.735Z,8.05
2023-01-01T13:16:56.596Z,8.05
2023-01-01T13:19:31.456Z,10.88
2023-01-01T13:21:59.092Z,10.27
2023-01-01T13:24:27.349Z,12.07
2023-01-01T13:26:54.990Z,8.68
2023-01-01T13:29:22.405Z,11.88
2023-01-01T13:31:49.811Z,12.95
2023-01-01T13:34:36.193Z,10.95
2023-01-01T13:37:15.874Z,10.63
2023-01-01T13:39:53.452Z,11.20
2023-01-01T13:42:40.056Z,11.88
2023-01-01T13:45:44.509Z,10.05
2023-01-01T13:48:36.834Z,13.98
2023-01-01T13:51:10.352Z,11.10
2023-01-01T13:53:49.880Z,11.35
2023-01-01T13:56:35.940Z,10.82
2023-01-01T13:59:06.156Z,10.00
2023-01-01T14:01:41.431Z,10.52
2023-01-01T14:04:14.654Z,10.90
2023-01-01T14:06:43.965Z,11.73
2023-01-01T14:09:15.292Z,9.60
2023-01-01T14:11:42.927Z,8.88
2023-01-01T14:14:24.967Z,8.48
2023-01-01T14:16:53.742Z,11.88
2023-01-01T14:19:21.583Z,11.15
2023-01-01T14:21:49.504Z,10.70
2023-01-01T14:24:18.978Z,9.50
2023-01-01T14:26:46.937Z,8.68
2023-01-01T14:29:20.500Z,8.95
2023-01-01T14:31:48.081Z,10.88
2023-01-01T14:34:16.718Z,9.95
2023-01-01T14:37:10.368Z,8.82
2023-01-01T14:39:38.178Z,8.35
2023-01-01T14:42:12.669Z,6.47
2023-01-01T14:44:41.143Z,7.60
2023-01-01T14:47:19.744Z,9.52
2023-01-01T14:49:48.841Z,7.45
2023-01-01T14:52:22.970Z,7.72
2023-01-01T14:54:51.716Z,9.15
2023-01-01T14:57:21.051Z,7.38
2023-01-01T14:59:50.148Z,9.57
2023-01-01T15:02:21.484Z,10.43
2023-01-01T15:04:49.419Z,9.50
2023-01-01T15:07:21.903Z,10.30
2023-01-01T15:09:49.893Z,8.80
2023-01-01T15:12:20.946Z,9.50
2023-01-01T15:14:49.799Z,9.77
2023-01-01T15:17:18.446Z,9.27
2023-01-01T15:19:47.073Z,9.63
2023-01-01T15:22:25.985Z,10.02
2023-01-01T15:24:53.380Z,9.35
2023-01-01T15:27:31.622Z,9.25
2023-01-01T15:29:59.410Z,10.15
2023-01-01T15:32:28.272Z,8.63
2023-01-01T15:34:56.890Z,9.98
2023-01-01T15:37:33.657Z,11.85
2023-01-01T15:40:02.360Z,10.00
2023-01-01T15:42:37.100Z,11.20
2023-01-01T15:45:20.254Z,11.10
2023-01-01T15:47:48.420Z,11.38
2023-01-01T15:50:18.976Z,10.25
2023-01-01T15:52:55.046Z,10.70
2023-01-01T15:55:23.176Z,10.15
2023-01-01T15:57:51.642Z,9.85
2023-01-01T16:00:23.320Z,10.52
2023-01-01T16:02:55.313Z,11.35
2023-01-01T16:05:24.736Z,10.55
2023-01-01T16:07:59.657Z,12.15
2023-01-01T16:10:27.099Z,9.52
2023-01-01T16:12:54.596Z,10.88
2023-01-01T16:15:22.056Z,10.55
2023-01-01T16:17:49.658Z,11.43
2023-01-01T16:20:17.874Z,11.45
2023-01-01T16:22:45.831Z,9.07
2023-01-01T16:25:17.825Z,11.63
2023-01-01T16:27:45.324Z,14.27
2023-01-01T16:30:13.401Z,9.95
2023-01-01T16:32:41.063Z,10.63
2023-01-01T16:35:12.680Z,9.98
2023-01-01T16:37:40.217Z,9.65
2023-01-01T16:40:08.382Z,12.65
2023-01-01T16:42:36.089Z,7.93
2023-01-01T16:45:03.689Z,10.77
2023-01-01T16:47:31.111Z,8.45
2023-01-01T16:49:58.548Z,10.10
2023-01-01T16:52:29.927Z,9.82
2023-01-01T16:55:00.837Z,7.60
2023-01-01T16:57:28.310Z,6.95
2023-01-01T16:59:56.101Z,6.38
2023-01-01T17:02:23.592Z,6.22
2023-01-01T17:04:51.202Z,6.47
2023-01-01T17:07:18.817Z,5.68
2023-01-01T17:09:46.291Z,5.35
2023-01-01T17:12:13.782Z,5.13
2023-01-01T17:14:41.263Z,5.97
2023-01-01T17:17:08.855Z,7.28
2023-01-01T17:19:36.368Z,6.60
2023-01-01T17:22:06.148Z,6.63
2023-01-01T17:24:33.643Z,8.07
2023-01-01T17:27:01.095Z,5.20
2023-01-01T17:29:28.664Z,7.45
2023-01-01T17:31:56.086Z,7.47
2023-01-01T17:34:23.613Z,6.95
2023-01-01T17:36:51.179Z,7.63
2023-01-01T17:39:18.756Z,7.20
2023-01-01T17:41:46.393Z,6.88
2023-01-01T17:44:13.942Z,7.97
2023-01-01T17:46:44.873Z,7.85
2023-01-01T17:49:12.480Z,7.50
2023-01-01T17:51:40.329Z,6.97
2023-01-01T17:54:10.938Z,7.55
2023-01-01T17:56:38.485Z,6.53
2023-01-01T17:59:06.051Z,8.10
2023-01-01T18:01:35.004Z,9.38
2023-01-01T18:04:03.977Z,7.05
2023-01-01T18:06:34.111Z,8.55
2023-01-01T18:09:06.012Z,8.75
2023-01-01T18:11:34.008Z,9.00
2023-01-01T18:14:02.377Z,7.97
2023-01-01T18:16:30.574Z,8.18
2023-01-01T18:19:01.632Z,13.55
2023-01-01T18:21:29.134Z,12.43
2023-01-01T18:24:03.062Z,8.70
2023-01-01T18:26:31.583Z,7.90
2023-01-01T18:29:00.414Z,9.82
2023-01-01T18:31:29.194Z,7.50
2023-01-01T18:33:56.737Z,7.63
2023-01-01T18:36:26.373Z,10.07
2023-01-01T18:39:07.634Z,8.77
2023-01-01T18:41:50.452Z,8.32
2023-01-01T18:44:30.191Z,13.13
2023-01-01T18:46:57.990Z,8.48
2023-01-01T18:49:26.305Z,7.55
2023-01-01T18:51:57.090Z,7.68
2023-01-01T18:54:27.878Z,14.90
2023-01-01T18:57:02.419Z,8.52
2023-01-01T18:59:29.920Z,12.15
2023-01-01T19:01:58.378Z,8.88
2023-01-01T19:04:25.986Z,8.30
2023-01-01T19:06:53.483Z,6.60
2023-01-01T19:09:21.054Z,8.90
2023-01-01T19:11:49.266Z,9.88
2023-01-01T19:14:20.587Z,12.05
2023-01-01T19:16:49.709Z,10.10
2023-01-01T19:19:20.040Z,10.80
2023-01-01T19:21:51.800Z,9.02
2023-01-01T19:24:27.057Z,9.50
2023-01-01T19:27:11.970Z,10.35
2023-01-01T19:29:42.865Z,10.55
2023-01-01T19:32:10.323Z,9.75
2023-01-01T19:34:39.293Z,10.02
2023-01-01T19:37:06.978Z,10.73
2023-01-01T19:39:37.375Z,12.30
2023-01-01T19:42:05.767Z,12.75
2023-01-01T19:44:36.702Z,11.55
2023-01-01T19:47:07.112Z,11.65
2023-01-01T19:49:35.485Z,9.80
2023-01-01T19:52:04.194Z,9.13
2023-01-01T19:54:31.740Z,10.18
2023-01-01T19:56:59.205Z,9.73
2023-01-01T19:59:33.096Z,10.80
2023-01-01T20:02:43.184Z,9.00
2023-01-01T20:04:49.070Z,9.40
2023-01-01T20:07:18.027Z,8.90
2023-01-01T20:09:45.515Z,9.10
2023-01-01T20:12:12.987Z,8.63
2023-01-01T20:14:40.571Z,9.45
2023-01-01T20:17:08.025Z,9.02
2023-01-01T20:19:36.647Z,6.55
2023-01-01T20:22:14.716Z,8.15
2023-01-01T20:24:42.892Z,8.68
2023-01-01T20:27:10.479Z,8.30
2023-01-01T20:29:38.390Z,10.68
2023-01-01T20:32:06.197Z,9.13
2023-01-01T20:34:33.978Z,7.80
2023-01-01T20:37:19.855Z,10.80
2023-01-01T20:39:47.359Z,8.50
2023-01-01T20:42:14.847Z,8.50
2023-01-01T20:44:44.977Z,7.68
2023-01-01T20:47:13.671Z,8.15
2023-01-01T20:49:41.711Z,8.10
2023-01-01T20:52:09.797Z,8.32
2023-01-01T20:54:37.648Z,9.80
2023-01-01T20:57:05.155Z,9.85
2023-01-01T20:59:37.384Z,8.65
2023-01-01T21:02:06.366Z,6.20
2023-01-01T21:04:39.419Z,7.43
2023-01-01T21:09:34.387Z,10.13
2023-01-01T21:12:02.948Z,11.10
2023-01-01T21:14:31.354Z,10.57
2023-01-01T21:16:59.021Z,20.88
2023-01-01T21:19:27.477Z,20.27
2023-01-01T21:21:59.017Z,19.27
2023-01-01T21:24:33.148Z,16.05
2023-01-01T21:27:11.670Z,12.70
2023-01-01T21:29:42.255Z,14.27
2023-01-01T21:32:28.055Z,12.27
2023-01-01T21:34:56.299Z,12.73
2023-01-01T21:37:50.385Z,14.07
2023-01-01T21:40:39.199Z,12.35
2023-01-01T21:43:06.628Z,11.43
2023-01-01T21:45:36.066Z,11.85
2023-01-01T21:48:26.872Z,9.63
2023-01-01T21:50:54.426Z,9.35
2023-01-01T21:53:23.441Z,8.80
2023-01-01T21:55:54.933Z,9.23
2023-01-01T21:59:07.724Z,9.40
2023-01-01T22:01:39.339Z,10.20
2023-01-01T22:04:12.680Z,9.57
2023-01-01T22:09:19.458Z,7.45
2023-01-01T22:11:47.809Z,8.27
2023-01-01T22:14:16.736Z,8.95
2023-01-01T22:16:45.473Z,7.60
2023-01-01T22:19:17.640Z,8.32
2023-01-01T22:21:46.136Z,7.95
2023-01-01T22:24:26.332Z,7.30
2023-01-01T22:26:53.907Z,7.80
2023-01-01T22:29:25.930Z,6.65
2023-01-01T22:31:58.453Z,6.93
2023-01-01T22:34:27.206Z,7.20
2023-01-01T22:36:54.728Z,8.68
2023-01-01T22:39:30.226Z,9.15
2023-01-01T22:41:57.836Z,8.23
2023-01-01T22:44:27.201Z,9.73
2023-01-01T22:46:59.175Z,8.20
2023-01-01T22:49:32.826Z,9.13
2023-01-01T22:52:00.537Z,8.85
2023-01-01T22:54:28.271Z,7.32
2023-01-01T22:56:55.903Z,7.72
2023-01-01T22:59:23.433Z,8.48
2023-01-01T23:01:51.060Z,6.03
2023-01-01T23:04:18.689Z,8.23
2023-01-01T23:06:46.271Z,6.45
2023-01-01T23:09:13.954Z,8.95
2023-01-01T23:11:41.598Z,8.60
2023-01-01T23:14:27.403Z,8.63
2023-01-01T23:16:54.927Z,8.50
2023-01-01T23:19:22.416Z,6.95
2023-01-01T23:21:49.937Z,6.78
2023-01-01T23:24:21.588Z,8.48
2023-01-01T23:26:49.690Z,7.80
2023-01-01T23:29:17.775Z,8.50
2023-01-01T23:31:46.114Z,8.55
2023-01-01T23:34:13.878Z,8.48
2023-01-01T23:36:42.617Z,6.72
2023-01-01T23:39:10.149Z,8.73
2023-01-01T23:41:37.654Z,8.20
2023-01-01T23:44:05.301Z,7.47
2023-01-01T23:46:36.085Z,8.45
2023-01-01T23:49:04.276Z,8.32
2023-01-01T23:51:32.173Z,7.75
2023-01-01T23:53:59.674Z,9.65
2023-01-01T23:56:29.301Z,8.98
2023-01-01T23:58:56.856Z,10.73
